createdAt,value
2022-09-15T00:00:44.565Z,953.78
2022-09-15T00:05:46.544Z,953.79
2022-09-15T00:10:48.637Z,953.81
2022-09-15T00:15:50.499Z,953.76
2022-09-15T00:20:52.310Z,953.71
2022-09-15T00:25:54.438Z,953.65
2022-09-15T00:30:55.768Z,953.56
2022-09-15T00:35:57.185Z,953.58
2022-09-15T00:40:58.761Z,953.52
2022-09-15T00:46:00.304Z,953.5
2022-09-15T00:51:01.552Z,953.43
2022-09-15T00:56:03.514Z,953.42
2022-09-15T01:01:05.417Z,953.44
2022-09-15T01:06:07.356Z,953.44
2022-09-15T01:11:08.938Z,953.41
2022-09-15T01:16:10.205Z,953.35
2022-09-15T01:21:12.205Z,953.37
2022-09-15T01:26:13.618Z,953.4
2022-09-15T01:31:15.129Z,953.34
2022-09-15T01:36:16.651Z,953.27
2022-09-15T01:41:18.286Z,953.28
2022-09-15T01:46:20.310Z,953.26
2022-09-15T01:51:21.557Z,953.26
2022-09-15T01:56:23.655Z,953.28
2022-09-15T02:01:25.867Z,953.25
2022-09-15T02:06:27.677Z,953.22
2022-09-15T02:11:29.784Z,953.23
2022-09-15T02:16:31.510Z,953.15
2022-09-15T02:21:33.601Z,953.12
2022-09-15T02:26:35.478Z,953.1
2022-09-15T02:31:37.223Z,953.16
2022-09-15T02:36:38.976Z,953.08
2022-09-15T02:41:40.564Z,953.12
2022-09-15T02:46:41.922Z,953.18
2022-09-15T02:51:43.819Z,953.15
2022-09-15T02:56:45.491Z,953.18
2022-09-15T03:01:47.672Z,953.15
2022-09-15T03:06:49.506Z,953.23
2022-09-15T03:11:50.976Z,953.24
2022-09-15T03:16:52.956Z,953.31
2022-09-15T03:21:54.329Z,953.32
2022-09-15T03:26:56.248Z,953.27
2022-09-15T03:31:58.299Z,953.28
2022-09-15T03:37:00.159Z,953.22
2022-09-15T03:42:01.774Z,953.21
2022-09-15T03:47:03.072Z,953.21
2022-09-15T03:52:04.390Z,953.22
2022-09-15T03:57:06.540Z,953.25
2022-09-15T04:02:08.005Z,953.23
2022-09-15T04:07:09.486Z,953.26
2022-09-15T04:12:10.914Z,953.24
2022-09-15T04:17:12.860Z,953.23
2022-09-15T04:22:17.630Z,953.19
2022-09-15T04:27:16.118Z,953.11
2022-09-15T04:32:17.721Z,953.13
2022-09-15T04:37:19.378Z,953.04
2022-09-15T04:42:21.448Z,952.99
2022-09-15T04:47:22.771Z,952.94
2022-09-15T04:52:24.664Z,952.93
2022-09-15T04:57:26.658Z,952.91
2022-09-15T05:02:28.523Z,952.89
2022-09-15T05:07:30.584Z,952.83
2022-09-15T05:12:32.685Z,952.92
2022-09-15T05:17:34.498Z,952.87
2022-09-15T05:22:39.583Z,952.86
2022-09-15T05:27:37.720Z,953
2022-09-15T05:32:39.354Z,953.01
2022-09-15T05:37:48.933Z,953.07
2022-09-15T05:42:42.330Z,953.11
2022-09-15T05:47:43.911Z,953.1
2022-09-15T05:52:45.186Z,953.09
2022-09-15T05:57:46.777Z,953.07
2022-09-15T06:02:48.877Z,953.08
2022-09-15T06:07:50.054Z,953.14
2022-09-15T06:12:52.169Z,953.17
2022-09-15T06:17:53.970Z,953.18
2022-09-15T06:22:55.785Z,953.19
2022-09-15T06:27:57.049Z,953.21
2022-09-15T06:32:58.508Z,953.32
2022-09-15T06:38:00.297Z,953.38
2022-09-15T06:43:01.883Z,953.38
2022-09-15T06:48:23.215Z,953.45
2022-09-15T06:53:05.451Z,953.53
2022-09-15T06:58:06.871Z,953.55
2022-09-15T07:03:08.954Z,953.52
2022-09-15T07:08:10.484Z,953.6
2022-09-15T07:13:11.818Z,953.71
2022-09-15T07:18:13.415Z,953.69
2022-09-15T07:23:15.231Z,953.68
2022-09-15T07:28:16.594Z,953.69
2022-09-15T07:33:17.850Z,953.7
2022-09-15T07:38:19.868Z,953.71
2022-09-15T07:43:21.263Z,953.7
2022-09-15T07:48:26.427Z,953.78
2022-09-15T07:53:25.504Z,953.73
2022-09-15T07:58:27.097Z,953.76
2022-09-15T08:03:28.605Z,953.78
2022-09-15T08:08:29.879Z,953.74
2022-09-15T08:13:31.123Z,953.66
2022-09-15T08:18:32.416Z,953.72
2022-09-15T08:23:34.056Z,953.69
2022-09-15T08:28:35.366Z,953.73
2022-09-15T08:33:38.942Z,953.75
2022-09-15T08:38:38.793Z,953.65
2022-09-15T08:43:40.849Z,953.66
2022-09-15T08:48:42.702Z,953.69
2022-09-15T08:53:44.959Z,953.63
2022-09-15T08:58:46.292Z,953.71
2022-09-15T09:03:47.932Z,953.69
2022-09-15T09:08:49.823Z,953.69
2022-09-15T09:13:51.964Z,953.68
2022-09-15T09:18:53.557Z,953.63
2022-09-15T09:23:55.215Z,953.65
2022-09-15T09:28:57.221Z,953.68
2022-09-15T09:33:58.812Z,953.54
2022-09-15T09:39:00.648Z,953.49
2022-09-15T09:44:02.813Z,953.46
2022-09-15T09:49:04.675Z,953.45
2022-09-15T09:54:06.272Z,953.41
2022-09-15T09:59:07.629Z,953.31
2022-09-15T10:04:09.382Z,953.35
2022-09-15T10:09:10.781Z,953.28
2022-09-15T10:14:12.786Z,953.19
2022-09-15T10:19:14.587Z,953.07
2022-09-15T10:24:18.148Z,953.23
2022-09-15T10:29:18.049Z,953.12
2022-09-15T10:34:20.179Z,953.16
2022-09-15T10:39:21.698Z,953.07
2022-09-15T10:44:23.226Z,953.06
2022-09-15T10:49:25.339Z,953.15
2022-09-15T10:54:27.220Z,953.18
2022-09-15T10:59:29.335Z,953.29
2022-09-15T11:04:30.628Z,953.29
2022-09-15T11:09:31.939Z,953.22
2022-09-15T11:09:38.253Z,953.21
2022-09-15T11:14:40.140Z,953.18
2022-09-15T11:19:41.612Z,953.16
2022-09-15T11:24:42.688Z,953.13
2022-09-15T11:29:44.787Z,953.24
2022-09-15T11:34:46.569Z,953.22
2022-09-15T11:39:47.818Z,953.29
2022-09-15T11:44:49.455Z,953.27
2022-09-15T11:49:51.284Z,953.31
2022-09-15T11:54:52.898Z,953.27
2022-09-15T11:59:54.666Z,953.34
2022-09-15T12:04:55.884Z,953.22
2022-09-15T12:09:57.316Z,953.29
2022-09-15T12:14:58.710Z,953.28
2022-09-15T12:20:00.016Z,953.22
2022-09-15T12:25:02.121Z,953.22
2022-09-15T12:30:03.351Z,953.29
2022-09-15T12:35:05.313Z,953.17
2022-09-15T12:40:07.110Z,953.18
2022-09-15T12:45:08.623Z,953.19
2022-09-15T12:50:10.070Z,953.23
2022-09-15T12:55:11.637Z,953.29
2022-09-15T13:00:13.665Z,953.27
2022-09-15T13:05:15.647Z,953.2
2022-09-15T13:10:16.845Z,953.13
2022-09-15T13:15:18.807Z,953.06
2022-09-15T13:20:20.898Z,953.15
2022-09-15T13:25:22.583Z,953.12
2022-09-15T13:30:24.222Z,953.12
2022-09-15T13:35:26.633Z,953.07
2022-09-15T13:40:28.016Z,952.91
2022-09-15T13:45:29.213Z,952.86
2022-09-15T13:50:30.814Z,952.93
2022-09-15T13:55:32.477Z,952.95
2022-09-15T14:00:34.320Z,952.97
2022-09-15T14:05:35.647Z,953.01
2022-09-15T14:10:36.902Z,953.1
2022-09-15T14:15:38.624Z,953.02
2022-09-15T14:20:40.003Z,953.06
2022-09-15T14:25:41.671Z,953.35
2022-09-15T14:30:43.446Z,953.54
2022-09-15T14:35:45.036Z,953.81
2022-09-15T14:40:46.973Z,953.81
2022-09-15T14:45:56.135Z,954.01
2022-09-15T14:50:49.867Z,953.9
2022-09-15T14:55:51.347Z,954.02
2022-09-15T15:00:53.471Z,954.06
2022-09-15T15:05:58.143Z,954.05
2022-09-15T15:10:56.528Z,954.06
2022-09-15T15:15:58.333Z,954.12
2022-09-15T15:21:00.450Z,954.23
2022-09-15T15:26:02.448Z,954.26
2022-09-15T15:31:04.454Z,954.29
2022-09-15T15:36:06.600Z,954.36
2022-09-15T15:41:17.436Z,954.47
2022-09-15T15:46:10.462Z,954.47
2022-09-15T15:51:12.080Z,954.47
2022-09-15T15:56:13.514Z,954.6
2022-09-15T16:01:15.128Z,954.65
2022-09-15T16:06:16.499Z,954.74
2022-09-15T16:11:18.192Z,954.74
2022-09-15T16:16:19.759Z,954.81
2022-09-15T16:21:21.626Z,954.88
2022-09-15T16:26:23.182Z,954.98
2022-09-15T16:31:25.118Z,955.14
2022-09-15T16:36:26.628Z,955.24
2022-09-15T16:41:28.109Z,955.4
2022-09-15T16:46:30.180Z,955.44
2022-09-15T16:51:32.033Z,955.54
2022-09-15T16:56:33.858Z,955.49
2022-09-15T17:01:35.345Z,955.56
2022-09-15T17:06:37.210Z,955.77
2022-09-15T17:11:38.762Z,955.83
2022-09-15T17:16:40.086Z,955.84
2022-09-15T17:21:41.570Z,955.92
2022-09-15T17:26:43.539Z,955.97
2022-09-15T17:31:45.481Z,956.02
2022-09-15T17:36:47.073Z,955.98
2022-09-15T17:41:48.493Z,956.06
2022-09-15T17:46:49.852Z,956
2022-09-15T17:51:51.828Z,956.07
2022-09-15T17:56:53.756Z,956.21
2022-09-15T18:01:55.175Z,956.35
2022-09-15T18:06:56.990Z,956.37
2022-09-15T18:11:58.380Z,956.4
2022-09-15T18:17:00.429Z,956.36
2022-09-15T18:22:02.371Z,956.47
2022-09-15T18:27:04.536Z,956.52
2022-09-15T18:32:05.724Z,956.58
2022-09-15T18:37:07.093Z,956.64
2022-09-15T18:42:08.551Z,956.66
2022-09-15T18:47:10.299Z,956.82
2022-09-15T18:52:12.191Z,956.87
2022-09-15T18:57:14.223Z,956.88
2022-09-15T19:02:16.056Z,957.01
2022-09-15T19:07:17.909Z,957.03
2022-09-15T19:17:21.829Z,956.97
2022-09-15T19:22:23.151Z,957.02
2022-09-15T19:27:29.769Z,957.06
2022-09-15T19:32:26.537Z,957.13
2022-09-15T19:37:28.419Z,957.12
2022-09-15T19:42:30.146Z,957.11
2022-09-15T19:47:31.547Z,957.19
2022-09-15T19:52:32.989Z,957.24
2022-09-15T19:57:34.632Z,957.28
2022-09-15T20:02:35.960Z,957.34
2022-09-15T20:07:37.538Z,957.37
2022-09-15T20:12:39.527Z,957.4
2022-09-15T20:17:46.213Z,957.41
2022-09-15T20:22:42.882Z,957.42
2022-09-15T20:27:44.668Z,957.38
2022-09-15T20:32:46.475Z,957.39
2022-09-15T20:37:48.243Z,957.51
2022-09-15T20:42:50.229Z,957.53
2022-09-15T20:47:51.871Z,957.63
2022-09-15T20:52:53.631Z,957.68
2022-09-15T20:57:55.459Z,957.76
2022-09-15T21:02:56.809Z,957.83
2022-09-15T21:07:58.269Z,957.76
2022-09-15T21:13:00.360Z,957.68
2022-09-15T21:18:01.673Z,957.7
2022-09-15T21:23:03.175Z,957.66
2022-09-15T21:28:04.877Z,957.7
2022-09-15T21:33:06.624Z,957.76
2022-09-15T21:38:08.737Z,957.69
2022-09-15T21:43:10.853Z,957.69
2022-09-15T21:48:12.060Z,957.78
2022-09-15T21:53:14.111Z,957.79
2022-09-15T21:58:15.938Z,957.73
2022-09-15T22:13:21.034Z,957.63
2022-09-15T22:18:22.246Z,957.58
2022-09-15T22:23:24.009Z,957.64
2022-09-15T22:28:25.696Z,957.77
2022-09-15T22:33:27.462Z,957.77
2022-09-15T22:38:29.116Z,957.72
2022-09-15T22:43:30.609Z,957.68
2022-09-15T22:48:32.529Z,957.66
2022-09-15T22:53:34.500Z,957.66
2022-09-15T22:58:36.684Z,957.58
2022-09-15T23:03:38.609Z,957.57
2022-09-15T23:08:40.759Z,957.52
2022-09-15T23:13:42.569Z,957.45
2022-09-15T23:18:44.005Z,957.39
2022-09-15T23:23:46.012Z,957.41
2022-09-15T23:28:47.459Z,957.38
2022-09-15T23:33:49.026Z,957.36
2022-09-15T23:38:50.358Z,957.34
2022-09-15T23:43:51.920Z,957.28
2022-09-15T23:48:53.853Z,957.26
2022-09-15T23:53:55.754Z,957.24
2022-09-15T23:58:57.409Z,957.22
